sensor_id;sensor_type;location;lat;lon;timestamp;pressure;altitude;pressure_sealevel;temperature;humidity
34696;BME280;20918;51.138;17.370;2023-04-26T00:02:25;99791.10;;;3.13;71.14
34696;BME280;20918;51.138;17.370;2023-04-26T00:05:29;99793.95;;;3.10;71.23
34696;BME280;20918;51.138;17.370;2023-04-26T00:08:32;99799.63;;;3.09;71.20
34696;BME280;20918;51.138;17.370;2023-04-26T00:11:36;99798.47;;;3.06;71.66
34696;BME280;20918;51.138;17.370;2023-04-26T00:14:36;99803.39;;;3.04;71.57
34696;BME280;20918;51.138;17.370;2023-04-26T00:17:38;99802.06;;;2.99;71.58
34696;BME280;20918;51.138;17.370;2023-04-26T00:20:38;99798.73;;;2.95;71.67
34696;BME280;20918;51.138;17.370;2023-04-26T00:23:39;99800.67;;;2.94;71.66
34696;BME280;20918;51.138;17.370;2023-04-26T00:26:40;99799.58;;;2.92;71.82
34696;BME280;20918;51.138;17.370;2023-04-26T00:29:40;99797.15;;;2.92;71.77
34696;BME280;20918;51.138;17.370;2023-04-26T00:32:43;99802.50;;;2.91;71.48
34696;BME280;20918;51.138;17.370;2023-04-26T00:35:50;99805.80;;;2.87;71.68
34696;BME280;20918;51.138;17.370;2023-04-26T00:38:53;99809.16;;;2.84;71.83
34696;BME280;20918;51.138;17.370;2023-04-26T00:41:55;99808.92;;;2.81;71.67
34696;BME280;20918;51.138;17.370;2023-04-26T00:44:56;99810.81;;;2.77;71.70
34696;BME280;20918;51.138;17.370;2023-04-26T00:48:00;99812.67;;;2.76;71.94
34696;BME280;20918;51.138;17.370;2023-04-26T00:51:06;99815.27;;;2.76;72.03
34696;BME280;20918;51.138;17.370;2023-04-26T00:54:10;99814.30;;;2.71;71.77
34696;BME280;20918;51.138;17.370;2023-04-26T00:57:11;99816.91;;;2.68;71.86
34696;BME280;20918;51.138;17.370;2023-04-26T01:00:18;99816.59;;;2.66;72.10
34696;BME280;20918;51.138;17.370;2023-04-26T01:03:18;99815.90;;;2.66;71.95
34696;BME280;20918;51.138;17.370;2023-04-26T01:06:19;99822.35;;;2.64;72.17
34696;BME280;20918;51.138;17.370;2023-04-26T01:09:20;99818.53;;;2.59;71.88
34696;BME280;20918;51.138;17.370;2023-04-26T01:12:22;99819.38;;;2.55;72.00
34696;BME280;20918;51.138;17.370;2023-04-26T01:15:26;99819.77;;;2.50;72.22
34696;BME280;20918;51.138;17.370;2023-04-26T01:18:27;99821.89;;;2.48;72.01
34696;BME280;20918;51.138;17.370;2023-04-26T01:21:30;99825.48;;;2.46;72.44
34696;BME280;20918;51.138;17.370;2023-04-26T01:24:34;99824.52;;;2.45;72.25
34696;BME280;20918;51.138;17.370;2023-04-26T01:27:37;99827.30;;;2.45;72.19
34696;BME280;20918;51.138;17.370;2023-04-26T01:30:41;99832.21;;;2.43;72.55
34696;BME280;20918;51.138;17.370;2023-04-26T01:33:42;99835.00;;;2.39;72.49
34696;BME280;20918;51.138;17.370;2023-04-26T01:36:43;99842.90;;;2.38;72.49
34696;BME280;20918;51.138;17.370;2023-04-26T01:39:43;99842.82;;;2.35;72.60
34696;BME280;20918;51.138;17.370;2023-04-26T01:42:45;99841.96;;;2.32;72.75
34696;BME280;20918;51.138;17.370;2023-04-26T01:45:46;99841.81;;;2.30;72.77
34696;BME280;20918;51.138;17.370;2023-04-26T01:49:08;99845.20;;;2.27;72.77
34696;BME280;20918;51.138;17.370;2023-04-26T01:52:14;99843.04;;;2.25;72.73
34696;BME280;20918;51.138;17.370;2023-04-26T01:55:14;99839.87;;;2.26;72.99
34696;BME280;20918;51.138;17.370;2023-04-26T01:58:15;99843.56;;;2.23;73.10
34696;BME280;20918;51.138;17.370;2023-04-26T02:01:18;99842.29;;;2.21;73.13
34696;BME280;20918;51.138;17.370;2023-04-26T02:04:27;99845.46;;;2.21;73.08
34696;BME280;20918;51.138;17.370;2023-04-26T02:07:39;99844.52;;;2.17;73.07
34696;BME280;20918;51.138;17.370;2023-04-26T02:10:47;99847.67;;;2.13;73.07
34696;BME280;20918;51.138;17.370;2023-04-26T02:13:49;99851.58;;;2.08;73.25
34696;BME280;20918;51.138;17.370;2023-04-26T02:17:11;99853.36;;;2.05;73.22
34696;BME280;20918;51.138;17.370;2023-04-26T02:20:12;99852.65;;;2.03;73.79
34696;BME280;20918;51.138;17.370;2023-04-26T02:23:13;99855.80;;;2.00;73.74
34696;BME280;20918;51.138;17.370;2023-04-26T02:26:16;99856.72;;;1.97;73.72
34696;BME280;20918;51.138;17.370;2023-04-26T02:29:17;99850.84;;;1.97;73.52
34696;BME280;20918;51.138;17.370;2023-04-26T02:32:18;99848.15;;;1.95;73.89
34696;BME280;20918;51.138;17.370;2023-04-26T02:38:41;99848.51;;;1.93;74.08
34696;BME280;20918;51.138;17.370;2023-04-26T02:41:42;99848.67;;;1.91;73.83
34696;BME280;20918;51.138;17.370;2023-04-26T02:44:46;99852.39;;;1.88;74.27
34696;BME280;20918;51.138;17.370;2023-04-26T02:47:50;99857.85;;;1.83;73.89
34696;BME280;20918;51.138;17.370;2023-04-26T02:50:51;99856.34;;;1.79;74.02
34696;BME280;20918;51.138;17.370;2023-04-26T02:53:53;99853.99;;;1.78;74.11
34696;BME280;20918;51.138;17.370;2023-04-26T02:56:54;99854.95;;;1.77;74.14
34696;BME280;20918;51.138;17.370;2023-04-26T02:59:55;99861.62;;;1.74;74.21
34696;BME280;20918;51.138;17.370;2023-04-26T03:02:56;99862.20;;;1.73;74.33
34696;BME280;20918;51.138;17.370;2023-04-26T03:05:57;99863.11;;;1.71;74.51
34696;BME280;20918;51.138;17.370;2023-04-26T03:08:58;99859.18;;;1.67;74.59
34696;BME280;20918;51.138;17.370;2023-04-26T03:11:59;99863.80;;;1.66;74.52
34696;BME280;20918;51.138;17.370;2023-04-26T03:15:20;99867.59;;;1.65;74.79
34696;BME280;20918;51.138;17.370;2023-04-26T03:18:21;99872.05;;;1.63;74.67
34696;BME280;20918;51.138;17.370;2023-04-26T03:21:23;99870.60;;;1.62;74.70
34696;BME280;20918;51.138;17.370;2023-04-26T03:24:23;99874.56;;;1.60;74.99
34696;BME280;20918;51.138;17.370;2023-04-26T03:27:24;99879.45;;;1.57;74.92
34696;BME280;20918;51.138;17.370;2023-04-26T03:30:27;99888.25;;;1.54;74.86
34696;BME280;20918;51.138;17.370;2023-04-26T03:33:32;99893.38;;;1.53;74.86
34696;BME280;20918;51.138;17.370;2023-04-26T03:36:39;99895.16;;;1.53;75.12
34696;BME280;20918;51.138;17.370;2023-04-26T03:39:43;99892.66;;;1.53;75.20
34696;BME280;20918;51.138;17.370;2023-04-26T03:42:48;99891.98;;;1.53;75.21
34696;BME280;20918;51.138;17.370;2023-04-26T03:45:51;99888.57;;;1.54;75.21
34696;BME280;20918;51.138;17.370;2023-04-26T03:48:59;99891.01;;;1.57;75.29
34696;BME280;20918;51.138;17.370;2023-04-26T03:52:03;99897.41;;;1.60;75.61
34696;BME280;20918;51.138;17.370;2023-04-26T03:55:08;99898.14;;;1.62;75.42
34696;BME280;20918;51.138;17.370;2023-04-26T03:58:11;99895.77;;;1.63;75.79
34696;BME280;20918;51.138;17.370;2023-04-26T04:01:13;99900.08;;;1.66;75.91
34696;BME280;20918;51.138;17.370;2023-04-26T04:04:15;99903.61;;;1.77;75.99
34696;BME280;20918;51.138;17.370;2023-04-26T04:07:17;99907.63;;;1.96;76.16
34696;BME280;20918;51.138;17.370;2023-04-26T04:10:21;99909.53;;;2.21;76.31
34696;BME280;20918;51.138;17.370;2023-04-26T04:13:25;99915.63;;;2.50;76.20
34696;BME280;20918;51.138;17.370;2023-04-26T04:16:32;99917.75;;;2.83;75.70
34696;BME280;20918;51.138;17.370;2023-04-26T04:19:36;99915.75;;;3.12;75.50
34696;BME280;20918;51.138;17.370;2023-04-26T04:22:40;99922.05;;;3.45;75.27
34696;BME280;20918;51.138;17.370;2023-04-26T04:25:44;99916.12;;;3.70;74.82
34696;BME280;20918;51.138;17.370;2023-04-26T04:28:46;99919.77;;;3.97;74.43
34696;BME280;20918;51.138;17.370;2023-04-26T04:31:48;99924.38;;;4.28;74.12
34696;BME280;20918;51.138;17.370;2023-04-26T04:34:49;99926.36;;;4.59;74.15
34696;BME280;20918;51.138;17.370;2023-04-26T04:37:54;99929.44;;;4.85;73.36
34696;BME280;20918;51.138;17.370;2023-04-26T04:40:56;99934.00;;;5.09;73.04
34696;BME280;20918;51.138;17.370;2023-04-26T04:43:57;99937.11;;;5.34;72.63
34696;BME280;20918;51.138;17.370;2023-04-26T04:47:00;99938.92;;;5.59;72.47
34696;BME280;20918;51.138;17.370;2023-04-26T04:50:00;99938.89;;;5.73;71.76
34696;BME280;20918;51.138;17.370;2023-04-26T04:53:04;99948.65;;;5.51;71.49
34696;BME280;20918;51.138;17.370;2023-04-26T04:56:07;99951.42;;;5.24;71.58
34696;BME280;20918;51.138;17.370;2023-04-26T04:59:09;99954.45;;;4.99;71.68
34696;BME280;20918;51.138;17.370;2023-04-26T05:02:10;99953.95;;;4.75;71.81
34696;BME280;20918;51.138;17.370;2023-04-26T05:05:11;99960.17;;;4.54;72.28
34696;BME280;20918;51.138;17.370;2023-04-26T05:08:12;99961.58;;;4.35;72.23
34696;BME280;20918;51.138;17.370;2023-04-26T05:11:13;99958.86;;;4.20;72.40
34696;BME280;20918;51.138;17.370;2023-04-26T05:14:15;99964.23;;;4.22;72.75
34696;BME280;20918;51.138;17.370;2023-04-26T05:17:16;99966.22;;;4.36;72.78
34696;BME280;20918;51.138;17.370;2023-04-26T05:20:23;99965.85;;;4.55;72.98
34696;BME280;20918;51.138;17.370;2023-04-26T05:23:24;99967.50;;;5.02;72.57
34696;BME280;20918;51.138;17.370;2023-04-26T05:26:25;99975.19;;;5.48;72.10
34696;BME280;20918;51.138;17.370;2023-04-26T05:29:30;99974.40;;;5.96;71.30
34696;BME280;20918;51.138;17.370;2023-04-26T05:32:31;99971.77;;;6.40;70.68
34696;BME280;20918;51.138;17.370;2023-04-26T05:36:01;99968.60;;;6.90;70.35
34696;BME280;20918;51.138;17.370;2023-04-26T05:39:02;99970.02;;;7.34;69.49
34696;BME280;20918;51.138;17.370;2023-04-26T05:42:05;99970.08;;;7.62;68.82
34696;BME280;20918;51.138;17.370;2023-04-26T05:45:06;99973.67;;;7.84;68.01
34696;BME280;20918;51.138;17.370;2023-04-26T05:48:07;99976.88;;;8.05;68.08
34696;BME280;20918;51.138;17.370;2023-04-26T05:51:10;99978.49;;;8.29;67.02
34696;BME280;20918;51.138;17.370;2023-04-26T05:54:11;99984.88;;;8.34;66.80
34696;BME280;20918;51.138;17.370;2023-04-26T05:57:12;99981.51;;;8.52;66.54
34696;BME280;20918;51.138;17.370;2023-04-26T06:00:21;99978.11;;;8.68;65.61
34696;BME280;20918;51.138;17.370;2023-04-26T06:03:23;99980.54;;;8.68;64.21
34696;BME280;20918;51.138;17.370;2023-04-26T06:06:24;99986.61;;;8.64;63.98
34696;BME280;20918;51.138;17.370;2023-04-26T06:09:26;99990.30;;;8.92;64.37
34696;BME280;20918;51.138;17.370;2023-04-26T06:12:27;99987.16;;;9.20;63.25
34696;BME280;20918;51.138;17.370;2023-04-26T06:15:28;99996.12;;;9.41;63.28
34696;BME280;20918;51.138;17.370;2023-04-26T06:18:31;99994.52;;;9.54;62.78
34696;BME280;20918;51.138;17.370;2023-04-26T06:21:32;99997.65;;;9.64;62.46
34696;BME280;20918;51.138;17.370;2023-04-26T06:24:33;99993.13;;;9.70;61.39
34696;BME280;20918;51.138;17.370;2023-04-26T06:27:34;99996.15;;;9.57;60.82
34696;BME280;20918;51.138;17.370;2023-04-26T06:30:45;99999.77;;;9.36;61.14
34696;BME280;20918;51.138;17.370;2023-04-26T06:33:49;100002.98;;;9.54;60.87
34696;BME280;20918;51.138;17.370;2023-04-26T06:36:50;100008.56;;;9.81;61.19
34696;BME280;20918;51.138;17.370;2023-04-26T06:39:51;99997.77;;;9.83;59.88
34696;BME280;20918;51.138;17.370;2023-04-26T06:42:53;100008.45;;;9.64;60.13
34696;BME280;20918;51.138;17.370;2023-04-26T06:46:13;100003.89;;;9.85;59.37
34696;BME280;20918;51.138;17.370;2023-04-26T06:49:17;100004.53;;;9.86;59.04
34696;BME280;20918;51.138;17.370;2023-04-26T06:52:18;100006.63;;;10.01;59.11
34696;BME280;20918;51.138;17.370;2023-04-26T06:55:19;100006.29;;;10.11;57.50
34696;BME280;20918;51.138;17.370;2023-04-26T06:58:19;100012.01;;;9.81;57.22
34696;BME280;20918;51.138;17.370;2023-04-26T07:01:20;100007.62;;;9.67;58.02
34696;BME280;20918;51.138;17.370;2023-04-26T07:04:21;100013.81;;;9.95;58.32
34696;BME280;20918;51.138;17.370;2023-04-26T07:07:25;100008.95;;;10.24;58.00
34696;BME280;20918;51.138;17.370;2023-04-26T07:10:27;99999.74;;;10.45;57.02
34696;BME280;20918;51.138;17.370;2023-04-26T07:13:27;100005.02;;;10.44;56.43
34696;BME280;20918;51.138;17.370;2023-04-26T07:16:28;100000.77;;;10.45;56.19
34696;BME280;20918;51.138;17.370;2023-04-26T07:19:29;99999.75;;;10.48;55.64
34696;BME280;20918;51.138;17.370;2023-04-26T07:22:30;100000.30;;;10.51;55.75
34696;BME280;20918;51.138;17.370;2023-04-26T07:25:31;100002.11;;;10.41;53.77
34696;BME280;20918;51.138;17.370;2023-04-26T07:28:33;100002.67;;;10.41;54.09
34696;BME280;20918;51.138;17.370;2023-04-26T07:31:34;100004.76;;;10.35;53.63
34696;BME280;20918;51.138;17.370;2023-04-26T07:34:35;100010.03;;;10.20;53.50
34696;BME280;20918;51.138;17.370;2023-04-26T07:37:36;100010.42;;;9.84;53.10
34696;BME280;20918;51.138;17.370;2023-04-26T07:40:37;100011.42;;;9.78;53.98
34696;BME280;20918;51.138;17.370;2023-04-26T07:43:41;100008.80;;;10.07;54.09
34696;BME280;20918;51.138;17.370;2023-04-26T07:46:44;100013.81;;;10.16;53.13
34696;BME280;20918;51.138;17.370;2023-04-26T07:49:52;100013.58;;;10.04;52.91
34696;BME280;20918;51.138;17.370;2023-04-26T07:52:53;100024.86;;;9.63;52.59
34696;BME280;20918;51.138;17.370;2023-04-26T07:56:01;100023.94;;;9.23;53.35
34696;BME280;20918;51.138;17.370;2023-04-26T08:02:12;100026.16;;;8.46;53.12
34696;BME280;20918;51.138;17.370;2023-04-26T08:05:14;100019.90;;;8.61;52.95
34696;BME280;20918;51.138;17.370;2023-04-26T08:08:15;100027.70;;;8.41;52.95
34696;BME280;20918;51.138;17.370;2023-04-26T08:11:19;100032.08;;;8.40;53.81
34696;BME280;20918;51.138;17.370;2023-04-26T08:14:22;100029.75;;;8.82;54.63
34696;BME280;20918;51.138;17.370;2023-04-26T08:17:23;100030.98;;;9.11;53.53
34696;BME280;20918;51.138;17.370;2023-04-26T08:20:24;100028.90;;;9.59;53.61
34696;BME280;20918;51.138;17.370;2023-04-26T08:23:34;100022.75;;;9.92;52.27
34696;BME280;20918;51.138;17.370;2023-04-26T08:26:35;100033.63;;;9.68;51.67
34696;BME280;20918;51.138;17.370;2023-04-26T08:29:36;100033.52;;;9.36;51.86
34696;BME280;20918;51.138;17.370;2023-04-26T08:32:37;100032.73;;;9.52;52.27
34696;BME280;20918;51.138;17.370;2023-04-26T08:35:37;100030.80;;;9.87;51.88
34696;BME280;20918;51.138;17.370;2023-04-26T08:38:38;100028.55;;;10.16;51.99
34696;BME280;20918;51.138;17.370;2023-04-26T08:41:44;100028.63;;;10.12;51.14
34696;BME280;20918;51.138;17.370;2023-04-26T08:44:50;100028.72;;;10.04;51.33
34696;BME280;20918;51.138;17.370;2023-04-26T08:48:10;100031.21;;;10.11;50.67
34696;BME280;20918;51.138;17.370;2023-04-26T08:51:14;100031.91;;;9.74;49.52
34696;BME280;20918;51.138;17.370;2023-04-26T08:54:18;100036.83;;;9.29;50.33
34696;BME280;20918;51.138;17.370;2023-04-26T08:57:20;100041.75;;;9.08;50.85
34696;BME280;20918;51.138;17.370;2023-04-26T09:00:22;100036.04;;;9.44;50.74
34696;BME280;20918;51.138;17.370;2023-04-26T09:03:27;100031.84;;;10.06;50.00
34696;BME280;20918;51.138;17.370;2023-04-26T09:06:29;100033.16;;;10.06;48.80
34696;BME280;20918;51.138;17.370;2023-04-26T09:09:34;100035.02;;;9.72;49.67
34696;BME280;20918;51.138;17.370;2023-04-26T09:12:38;100034.92;;;9.71;49.23
34696;BME280;20918;51.138;17.370;2023-04-26T09:15:39;100026.55;;;10.18;49.19
34696;BME280;20918;51.138;17.370;2023-04-26T09:18:51;100023.48;;;10.75;49.35
34696;BME280;20918;51.138;17.370;2023-04-26T09:21:54;100021.23;;;11.17;48.83
34696;BME280;20918;51.138;17.370;2023-04-26T09:24:55;100029.59;;;11.00;48.48
34696;BME280;20918;51.138;17.370;2023-04-26T09:27:57;100032.95;;;10.62;47.99
34696;BME280;20918;51.138;17.370;2023-04-26T09:30:57;100035.78;;;10.31;48.29
34696;BME280;20918;51.138;17.370;2023-04-26T09:33:58;100037.95;;;10.42;48.72
34696;BME280;20918;51.138;17.370;2023-04-26T09:37:02;100032.10;;;10.84;48.64
34696;BME280;20918;51.138;17.370;2023-04-26T09:40:07;100024.14;;;11.33;47.98
34696;BME280;20918;51.138;17.370;2023-04-26T09:43:13;100021.40;;;11.47;46.59
34696;BME280;20918;51.138;17.370;2023-04-26T09:46:21;100021.63;;;11.36;47.15
34696;BME280;20918;51.138;17.370;2023-04-26T09:49:29;100025.92;;;10.99;46.48
34696;BME280;20918;51.138;17.370;2023-04-26T09:52:44;100024.46;;;10.73;47.12
34696;BME280;20918;51.138;17.370;2023-04-26T09:55:45;100026.73;;;11.02;46.39
34696;BME280;20918;51.138;17.370;2023-04-26T10:01:47;100023.08;;;11.85;46.24
34696;BME280;20918;51.138;17.370;2023-04-26T10:04:50;100023.38;;;11.55;44.70
34696;BME280;20918;51.138;17.370;2023-04-26T10:07:51;100028.56;;;10.98;44.76
34696;BME280;20918;51.138;17.370;2023-04-26T10:10:51;100037.05;;;10.64;45.39
34696;BME280;20918;51.138;17.370;2023-04-26T10:13:52;100036.20;;;10.35;45.63
34696;BME280;20918;51.138;17.370;2023-04-26T10:16:55;100041.68;;;10.00;45.15
34696;BME280;20918;51.138;17.370;2023-04-26T10:19:57;100045.90;;;9.63;45.49
34696;BME280;20918;51.138;17.370;2023-04-26T10:23:04;100047.52;;;9.61;46.15
34696;BME280;20918;51.138;17.370;2023-04-26T10:36:07;100045.24;;;10.25;45.93
34696;BME280;20918;51.138;17.370;2023-04-26T10:39:19;100050.64;;;9.91;45.96
34696;BME280;20918;51.138;17.370;2023-04-26T10:42:26;100055.60;;;9.66;46.60
34696;BME280;20918;51.138;17.370;2023-04-26T10:45:30;100053.75;;;9.42;46.74
34696;BME280;20918;51.138;17.370;2023-04-26T10:48:31;100060.55;;;9.19;46.98
34696;BME280;20918;51.138;17.370;2023-04-26T10:51:32;100057.01;;;9.16;47.57
34696;BME280;20918;51.138;17.370;2023-04-26T10:57:51;100039.11;;;10.32;48.11
34696;BME280;20918;51.138;17.370;2023-04-26T11:04:14;100030.19;;;10.74;45.86
34696;BME280;20918;51.138;17.370;2023-04-26T11:07:15;100035.98;;;10.37;45.77
34696;BME280;20918;51.138;17.370;2023-04-26T11:10:38;100037.54;;;9.98;46.32
34696;BME280;20918;51.138;17.370;2023-04-26T11:13:42;100044.04;;;9.75;47.21
34696;BME280;20918;51.138;17.370;2023-04-26T11:16:44;100047.73;;;9.72;47.10
34696;BME280;20918;51.138;17.370;2023-04-26T11:19:45;100045.48;;;10.03;47.64
34696;BME280;20918;51.138;17.370;2023-04-26T11:22:49;100044.88;;;10.61;47.85
34696;BME280;20918;51.138;17.370;2023-04-26T11:25:56;100038.89;;;11.07;47.00
34696;BME280;20918;51.138;17.370;2023-04-26T11:29:17;100038.17;;;11.34;45.83
34696;BME280;20918;51.138;17.370;2023-04-26T11:36:40;100055.42;;;10.47;44.96
34696;BME280;20918;51.138;17.370;2023-04-26T11:39:44;100057.14;;;10.13;45.77
34696;BME280;20918;51.138;17.370;2023-04-26T11:42:45;100058.67;;;9.89;45.69
34696;BME280;20918;51.138;17.370;2023-04-26T11:45:57;100061.23;;;9.58;45.82
34696;BME280;20918;51.138;17.370;2023-04-26T11:49:00;100065.09;;;9.34;45.84
34696;BME280;20918;51.138;17.370;2023-04-26T11:52:01;100067.42;;;9.25;45.68
34696;BME280;20918;51.138;17.370;2023-04-26T11:55:13;100069.42;;;9.25;45.58
34696;BME280;20918;51.138;17.370;2023-04-26T11:58:16;100060.56;;;9.47;46.14
34696;BME280;20918;51.138;17.370;2023-04-26T12:01:38;100058.17;;;10.01;45.46
34696;BME280;20918;51.138;17.370;2023-04-26T12:04:39;100051.92;;;10.10;44.34
34696;BME280;20918;51.138;17.370;2023-04-26T12:07:40;100053.52;;;10.17;44.18
34696;BME280;20918;51.138;17.370;2023-04-26T12:10:58;100052.25;;;10.16;44.44
34696;BME280;20918;51.138;17.370;2023-04-26T12:14:00;100051.84;;;10.31;44.36
34696;BME280;20918;51.138;17.370;2023-04-26T12:17:02;100053.21;;;10.57;43.53
34696;BME280;20918;51.138;17.370;2023-04-26T12:20:10;100052.41;;;10.76;43.83
34696;BME280;20918;51.138;17.370;2023-04-26T12:23:15;100050.72;;;10.84;43.17
34696;BME280;20918;51.138;17.370;2023-04-26T12:26:16;100054.64;;;10.61;43.77
34696;BME280;20918;51.138;17.370;2023-04-26T12:29:20;100057.14;;;10.26;44.02
34696;BME280;20918;51.138;17.370;2023-04-26T12:32:23;100066.69;;;9.93;44.41
34696;BME280;20918;51.138;17.370;2023-04-26T12:35:27;100071.19;;;9.69;45.00
34696;BME280;20918;51.138;17.370;2023-04-26T12:38:28;100074.10;;;9.50;45.53
34696;BME280;20918;51.138;17.370;2023-04-26T12:45:44;100079.38;;;9.11;46.01
34696;BME280;20918;51.138;17.370;2023-04-26T12:48:48;100075.12;;;9.13;45.91
34696;BME280;20918;51.138;17.370;2023-04-26T12:51:51;100075.52;;;9.15;45.75
34696;BME280;20918;51.138;17.370;2023-04-26T12:54:52;100078.24;;;9.22;46.03
34696;BME280;20918;51.138;17.370;2023-04-26T12:57:56;100071.83;;;9.39;46.71
34696;BME280;20918;51.138;17.370;2023-04-26T13:00:56;100068.96;;;9.72;46.58
34696;BME280;20918;51.138;17.370;2023-04-26T13:03:57;100066.44;;;9.79;45.49
34696;BME280;20918;51.138;17.370;2023-04-26T13:06:59;100065.45;;;9.73;45.69
34696;BME280;20918;51.138;17.370;2023-04-26T13:10:00;100068.23;;;9.82;45.94
34696;BME280;20918;51.138;17.370;2023-04-26T13:13:01;100066.64;;;10.12;46.64
34696;BME280;20918;51.138;17.370;2023-04-26T13:16:02;100063.53;;;10.50;46.17
34696;BME280;20918;51.138;17.370;2023-04-26T13:19:03;100056.80;;;10.70;45.67
34696;BME280;20918;51.138;17.370;2023-04-26T13:22:04;100054.28;;;10.62;44.61
34696;BME280;20918;51.138;17.370;2023-04-26T13:25:07;100063.11;;;10.56;45.15
34696;BME280;20918;51.138;17.370;2023-04-26T13:28:08;100069.36;;;10.60;45.15
34696;BME280;20918;51.138;17.370;2023-04-26T13:31:09;100078.48;;;10.67;45.29
34696;BME280;20918;51.138;17.370;2023-04-26T13:34:11;100078.95;;;10.63;45.13
34696;BME280;20918;51.138;17.370;2023-04-26T13:37:12;100093.19;;;10.38;44.85
34696;BME280;20918;51.138;17.370;2023-04-26T13:40:13;100099.05;;;10.09;45.05
34696;BME280;20918;51.138;17.370;2023-04-26T13:43:14;100098.33;;;9.78;45.58
34696;BME280;20918;51.138;17.370;2023-04-26T13:46:15;100105.85;;;9.51;45.85
34696;BME280;20918;51.138;17.370;2023-04-26T13:49:16;100107.40;;;9.31;46.29
34696;BME280;20918;51.138;17.370;2023-04-26T13:52:17;100111.36;;;9.14;46.31
34696;BME280;20918;51.138;17.370;2023-04-26T13:55:18;100109.98;;;9.03;46.56
34696;BME280;20918;51.138;17.370;2023-04-26T13:58:18;100114.70;;;8.96;46.53
34696;BME280;20918;51.138;17.370;2023-04-26T14:01:20;100107.69;;;8.96;46.92
34696;BME280;20918;51.138;17.370;2023-04-26T14:04:21;100103.04;;;8.95;46.64
34696;BME280;20918;51.138;17.370;2023-04-26T14:07:22;100104.49;;;8.93;46.66
34696;BME280;20918;51.138;17.370;2023-04-26T14:10:23;100108.05;;;8.92;46.96
34696;BME280;20918;51.138;17.370;2023-04-26T14:13:24;100107.20;;;8.91;47.20
34696;BME280;20918;51.138;17.370;2023-04-26T14:16:24;100104.77;;;8.95;47.47
34696;BME280;20918;51.138;17.370;2023-04-26T14:19:26;100105.02;;;9.00;47.16
34696;BME280;20918;51.138;17.370;2023-04-26T14:22:27;100105.77;;;9.03;47.57
34696;BME280;20918;51.138;17.370;2023-04-26T14:25:28;100102.84;;;9.06;47.43
34696;BME280;20918;51.138;17.370;2023-04-26T14:28:28;100101.37;;;9.08;47.19
34696;BME280;20918;51.138;17.370;2023-04-26T14:31:29;100102.62;;;9.08;47.18
34696;BME280;20918;51.138;17.370;2023-04-26T14:34:33;100105.71;;;9.02;47.29
34696;BME280;20918;51.138;17.370;2023-04-26T14:37:38;100113.02;;;9.10;47.60
34696;BME280;20918;51.138;17.370;2023-04-26T14:40:47;100114.67;;;9.24;47.57
34696;BME280;20918;51.138;17.370;2023-04-26T14:43:49;100111.77;;;9.23;46.93
34696;BME280;20918;51.138;17.370;2023-04-26T14:46:50;100116.38;;;9.27;47.30
34696;BME280;20918;51.138;17.370;2023-04-26T14:49:53;100111.14;;;9.36;47.46
34696;BME280;20918;51.138;17.370;2023-04-26T14:52:54;100112.48;;;9.54;47.35
34696;BME280;20918;51.138;17.370;2023-04-26T14:55:59;100115.88;;;9.74;46.76
34696;BME280;20918;51.138;17.370;2023-04-26T14:59:00;100111.87;;;9.87;46.33
34696;BME280;20918;51.138;17.370;2023-04-26T15:02:02;100120.38;;;9.93;46.30
34696;BME280;20918;51.138;17.370;2023-04-26T15:05:05;100125.33;;;9.95;46.12
34696;BME280;20918;51.138;17.370;2023-04-26T15:08:07;100116.80;;;10.07;46.22
34696;BME280;20918;51.138;17.370;2023-04-26T15:11:09;100111.30;;;10.15;45.67
34696;BME280;20918;51.138;17.370;2023-04-26T15:14:10;100120.02;;;10.02;45.35
34696;BME280;20918;51.138;17.370;2023-04-26T15:17:11;100132.03;;;9.81;45.53
34696;BME280;20918;51.138;17.370;2023-04-26T15:20:12;100134.95;;;9.64;45.82
34696;BME280;20918;51.138;17.370;2023-04-26T15:23:13;100133.92;;;9.38;46.42
34696;BME280;20918;51.138;17.370;2023-04-26T15:26:14;100139.71;;;9.14;46.50
34696;BME280;20918;51.138;17.370;2023-04-26T15:29:15;100143.88;;;9.01;47.08
34696;BME280;20918;51.138;17.370;2023-04-26T15:32:29;100146.34;;;8.92;47.39
34696;BME280;20918;51.138;17.370;2023-04-26T15:38:44;100160.38;;;8.69;48.01
34696;BME280;20918;51.138;17.370;2023-04-26T15:41:51;100163.68;;;8.61;48.61
34696;BME280;20918;51.138;17.370;2023-04-26T15:44:52;100163.17;;;8.46;49.28
34696;BME280;20918;51.138;17.370;2023-04-26T15:48:04;100164.10;;;8.31;49.94
34696;BME280;20918;51.138;17.370;2023-04-26T15:51:05;100166.65;;;8.16;50.64
34696;BME280;20918;51.138;17.370;2023-04-26T15:54:07;100166.29;;;8.06;51.18
34696;BME280;20918;51.138;17.370;2023-04-26T15:57:11;100161.89;;;7.99;51.36
34696;BME280;20918;51.138;17.370;2023-04-26T16:00:12;100155.34;;;7.98;52.15
34696;BME280;20918;51.138;17.370;2023-04-26T16:03:16;100153.17;;;8.03;52.24
34696;BME280;20918;51.138;17.370;2023-04-26T16:06:18;100153.35;;;8.20;52.95
34696;BME280;20918;51.138;17.370;2023-04-26T16:09:21;100155.52;;;8.34;53.00
34696;BME280;20918;51.138;17.370;2023-04-26T16:12:25;100149.86;;;8.43;53.02
34696;BME280;20918;51.138;17.370;2023-04-26T16:15:26;100150.67;;;8.49;52.94
34696;BME280;20918;51.138;17.370;2023-04-26T16:18:30;100151.18;;;8.55;52.34
34696;BME280;20918;51.138;17.370;2023-04-26T16:21:32;100153.89;;;8.63;52.70
34696;BME280;20918;51.138;17.370;2023-04-26T16:24:33;100156.58;;;8.68;52.52
34696;BME280;20918;51.138;17.370;2023-04-26T16:27:35;100151.75;;;8.72;51.99
34696;BME280;20918;51.138;17.370;2023-04-26T16:30:37;100152.49;;;8.75;51.58
34696;BME280;20918;51.138;17.370;2023-04-26T16:33:38;100156.38;;;8.71;51.27
34696;BME280;20918;51.138;17.370;2023-04-26T16:36:39;100160.39;;;8.65;51.48
34696;BME280;20918;51.138;17.370;2023-04-26T16:39:42;100163.80;;;8.54;51.42